Time;durP1;ratioP1;P1;durP2;ratioP2;P2;SDS_P1;SDS_P2;PMS_P1;PMS_P2;Temp;Humidity;BMP_temperature;BMP_pressure;BME280_temperature;BME280_humidity;BME280_pressure;Samples;Min_cycle;Max_cycle;Signal;HPM_P1;HPM_P2
2021/05/07 00:01:43;;;;;;;7.10;5.10;;;9.20;99.90;;;;;;5017839;28;20445;-46
2021/05/07 00:04:10;;;;;;;5.30;4.30;;;9.20;99.90;;;;;;5017490;28;20568;-45
2021/05/07 00:06:36;;;;;;;7.07;4.57;;;9.20;99.90;;;;;;5016642;28;20805;-50
2021/05/07 00:09:06;;;;;;;8.97;5.40;;;9.20;99.90;;;;;;5017106;28;20448;-47
2021/05/07 00:11:33;;;;;;;5.53;4.73;;;9.30;99.90;;;;;;5017271;28;20475;-46
2021/05/07 00:14:02;;;;;;;8.33;4.90;;;9.30;99.90;;;;;;5017375;28;20479;-46
2021/05/07 00:16:28;;;;;;;8.03;5.50;;;9.30;99.90;;;;;;5017166;28;20449;-50
2021/05/07 00:18:54;;;;;;;10.03;5.20;;;9.30;99.90;;;;;;5015949;28;20516;-49
2021/05/07 00:21:21;;;;;;;5.23;4.73;;;9.20;99.90;;;;;;5016654;28;20465;-48
2021/05/07 00:23:47;;;;;;;6.70;6.07;;;9.20;99.90;;;;;;5017063;28;20481;-45
2021/05/07 00:26:13;;;;;;;6.20;4.83;;;9.30;99.90;;;;;;5016928;28;20468;-51
2021/05/07 00:28:39;;;;;;;8.50;5.33;;;9.20;99.90;;;;;;5016905;28;20449;-48
2021/05/07 00:31:06;;;;;;;6.10;4.93;;;9.20;99.90;;;;;;5016680;28;20512;-45
2021/05/07 00:33:32;;;;;;;5.70;5.13;;;9.30;99.90;;;;;;5016956;28;20441;-48
2021/05/07 00:35:59;;;;;;;9.90;5.63;;;9.20;99.90;;;;;;5017419;28;20478;-45
2021/05/07 00:38:25;;;;;;;7.57;5.00;;;9.20;99.90;;;;;;5017467;28;20441;-45
2021/05/07 00:40:51;;;;;;;7.00;5.80;;;9.20;99.90;;;;;;5017868;28;20460;-45
2021/05/07 00:43:17;;;;;;;8.67;5.60;;;9.20;99.90;;;;;;5016997;28;20503;-45
2021/05/07 00:45:44;;;;;;;6.27;5.17;;;9.10;99.90;;;;;;5016943;28;20507;-50
2021/05/07 00:48:12;;;;;;;7.63;5.57;;;9.10;99.90;;;;;;5016824;28;20445;-47
2021/05/07 00:50:40;;;;;;;6.40;4.90;;;9.20;99.90;;;;;;5016840;28;20544;-47
2021/05/07 00:53:07;;;;;;;10.97;5.87;;;9.10;99.90;;;;;;5016518;28;20554;-48
2021/05/07 00:55:37;;;;;;;9.37;6.00;;;9.10;99.90;;;;;;5017469;28;20449;-53
2021/05/07 00:58:03;;;;;;;7.97;5.77;;;9.10;99.90;;;;;;5017153;28;20515;-46
2021/05/07 01:00:31;;;;;;;8.00;5.10;;;9.00;99.90;;;;;;5017098;28;20543;-45
2021/05/07 01:02:57;;;;;;;7.80;5.53;;;8.90;99.90;;;;;;5017211;28;20798;-45
2021/05/07 01:05:25;;;;;;;8.87;5.87;;;8.90;99.90;;;;;;5017322;28;20955;-45
2021/05/07 01:07:52;;;;;;;6.90;5.53;;;8.90;99.90;;;;;;5017482;28;20444;-45
2021/05/07 01:10:19;;;;;;;8.50;6.33;;;8.90;99.90;;;;;;5017273;28;20503;-45
2021/05/07 01:12:46;;;;;;;8.53;6.23;;;8.90;99.90;;;;;;5019638;28;20445;-46
2021/05/07 01:15:15;;;;;;;7.73;5.77;;;8.90;99.90;;;;;;5021184;28;20514;-46
2021/05/07 01:17:43;;;;;;;5.80;4.87;;;8.90;99.90;;;;;;5020252;28;20466;-45
2021/05/07 01:20:13;;;;;;;7.77;5.40;;;8.90;99.90;;;;;;5020436;28;20537;-47
2021/05/07 01:22:40;;;;;;;6.60;5.63;;;8.90;99.90;;;;;;5020699;28;20812;-46
2021/05/07 01:25:08;;;;;;;8.13;5.10;;;8.90;99.90;;;;;;5019843;28;20453;-50
2021/05/07 01:27:37;;;;;;;7.80;5.90;;;8.80;99.90;;;;;;5019930;28;20945;-48
2021/05/07 01:30:17;;;;;;;8.90;5.83;;;8.80;99.90;;;;;;5020221;28;20441;-52
2021/05/07 01:32:44;;;;;;;7.10;5.50;;;8.80;99.90;;;;;;5019987;28;20519;-51
2021/05/07 01:35:14;;;;;;;6.67;4.97;;;8.80;99.90;;;;;;5019338;28;20461;-50
2021/05/07 01:37:41;;;;;;;8.97;5.90;;;8.80;99.90;;;;;;5019982;28;20456;-45
2021/05/07 01:40:15;;;;;;;5.80;4.70;;;8.70;99.90;;;;;;5020702;28;20452;-48
2021/05/07 01:42:42;;;;;;;7.50;5.60;;;8.70;99.90;;;;;;5019630;28;20546;-47
2021/05/07 01:45:09;;;;;;;6.20;4.93;;;8.70;99.90;;;;;;5019396;28;20972;-46
2021/05/07 01:47:35;;;;;;;10.13;5.33;;;8.70;99.90;;;;;;5019929;28;20752;-45
2021/05/07 01:50:04;;;;;;;6.23;4.60;;;8.70;99.90;;;;;;5020451;28;20449;-47
2021/05/07 01:52:31;;;;;;;8.33;5.70;;;8.70;99.90;;;;;;5019654;28;20480;-46
2021/05/07 01:54:57;;;;;;;6.50;4.93;;;8.70;99.90;;;;;;5019924;28;20809;-45
2021/05/07 01:57:28;;;;;;;6.87;5.00;;;8.60;99.90;;;;;;5019517;28;20441;-46
2021/05/07 01:59:54;;;;;;;7.03;5.30;;;8.60;99.90;;;;;;5019863;28;20886;-46
2021/05/07 02:02:20;;;;;;;7.10;5.90;;;8.50;99.90;;;;;;5019488;28;20484;-51
2021/05/07 02:04:47;;;;;;;6.73;5.53;;;8.50;99.90;;;;;;5019705;28;20449;-49
2021/05/07 02:07:13;;;;;;;8.33;5.33;;;8.50;99.90;;;;;;5019405;28;20456;-47
2021/05/07 02:09:40;;;;;;;6.83;4.70;;;8.50;99.90;;;;;;5019537;28;20468;-46
2021/05/07 02:12:07;;;;;;;12.63;5.50;;;8.50;99.90;;;;;;5020156;28;20511;-46
2021/05/07 02:14:33;;;;;;;8.30;5.50;;;8.50;99.90;;;;;;5020202;28;20445;-47
2021/05/07 02:17:01;;;;;;;6.77;4.73;;;8.50;99.90;;;;;;5019982;28;20456;-44
2021/05/07 02:19:27;;;;;;;8.20;4.90;;;8.50;99.90;;;;;;5019797;28;20504;-45
2021/05/07 02:21:53;;;;;;;6.40;5.50;;;8.40;99.90;;;;;;5019548;28;20484;-46
2021/05/07 02:24:19;;;;;;;9.23;5.00;;;8.40;99.90;;;;;;5019989;28;20781;-49
2021/05/07 02:26:47;;;;;;;6.90;5.10;;;8.50;99.90;;;;;;5019194;28;20457;-47
2021/05/07 02:29:13;;;;;;;6.60;5.20;;;8.50;99.90;;;;;;5019190;28;20790;-51
2021/05/07 02:31:40;;;;;;;6.07;4.90;;;8.40;99.90;;;;;;5019284;28;20460;-49
2021/05/07 02:34:06;;;;;;;6.40;5.20;;;8.50;99.90;;;;;;5019506;28;20453;-47
2021/05/07 02:36:32;;;;;;;6.60;4.63;;;8.50;99.90;;;;;;5019229;28;20445;-45
2021/05/07 02:38:58;;;;;;;6.47;5.47;;;8.50;99.90;;;;;;5019810;28;20827;-48
2021/05/07 02:41:25;;;;;;;9.47;4.90;;;8.50;99.90;;;;;;5018912;28;20468;-51
2021/05/07 02:43:52;;;;;;;7.27;5.40;;;8.40;99.90;;;;;;5018247;28;20523;-49
2021/05/07 02:46:19;;;;;;;6.77;5.60;;;8.40;99.90;;;;;;5019108;28;20456;-52
2021/05/07 02:48:45;;;;;;;6.33;5.20;;;8.40;99.90;;;;;;5018933;28;20986;-52
2021/05/07 02:51:11;;;;;;;7.23;5.07;;;8.40;99.90;;;;;;5018522;28;20908;-48
2021/05/07 02:53:37;;;;;;;5.80;4.80;;;8.40;99.90;;;;;;5018783;28;20477;-50
2021/05/07 02:56:04;;;;;;;6.70;5.00;;;8.30;99.90;;;;;;5018831;28;20791;-48
2021/05/07 02:58:30;;;;;;;6.87;4.97;;;8.30;99.90;;;;;;5018904;28;20460;-46
2021/05/07 03:00:57;;;;;;;7.83;5.50;;;8.40;99.90;;;;;;5019150;28;20441;-47
2021/05/07 03:03:23;;;;;;;17.43;7.40;;;8.40;99.90;;;;;;5019712;28;20567;-45
2021/05/07 03:05:49;;;;;;;7.23;5.83;;;8.40;99.90;;;;;;5018740;28;20461;-50
2021/05/07 03:08:22;;;;;;;8.13;5.53;;;8.40;99.90;;;;;;5018910;28;20449;-45
2021/05/07 03:10:48;;;;;;;8.10;5.40;;;8.40;99.90;;;;;;5018862;28;20437;-51
2021/05/07 03:13:14;;;;;;;7.27;5.60;;;8.40;99.90;;;;;;5018236;28;20452;-48
2021/05/07 03:15:41;;;;;;;6.20;5.03;;;8.40;99.90;;;;;;5018378;28;20476;-45
2021/05/07 03:18:16;;;;;;;7.40;5.13;;;8.40;99.90;;;;;;5018210;28;20449;-45
2021/05/07 03:20:42;;;;;;;8.90;5.37;;;8.40;99.90;;;;;;5018746;28;20766;-45
2021/05/07 03:23:08;;;;;;;11.13;6.77;;;8.50;99.90;;;;;;5018721;28;20491;-46
2021/05/07 03:25:35;;;;;;;5.37;4.87;;;8.40;99.90;;;;;;5018774;28;20453;-44
2021/05/07 03:28:01;;;;;;;8.80;5.40;;;8.50;99.90;;;;;;5019279;28;20453;-48
2021/05/07 03:30:27;;;;;;;7.17;5.93;;;8.40;99.90;;;;;;5018694;28;20457;-48
2021/05/07 03:32:53;;;;;;;8.10;6.20;;;8.40;99.90;;;;;;5018278;28;20444;-51
2021/05/07 03:35:20;;;;;;;6.70;6.00;;;8.50;99.90;;;;;;5017632;28;20441;-49
2021/05/07 03:37:47;;;;;;;7.30;5.33;;;8.50;99.90;;;;;;5017889;28;20479;-51
2021/05/07 03:40:13;;;;;;;7.50;6.07;;;8.50;99.90;;;;;;5018109;28;20458;-49
2021/05/07 03:42:40;;;;;;;6.70;5.43;;;8.50;99.90;;;;;;5017809;28;21040;-47
2021/05/07 03:45:07;;;;;;;7.53;5.87;;;8.60;99.90;;;;;;5017755;28;20460;-47
2021/05/07 03:47:33;;;;;;;9.20;5.50;;;8.60;99.90;;;;;;5017496;28;20481;-54
2021/05/07 03:49:59;;;;;;;7.10;5.50;;;8.60;99.90;;;;;;5017547;28;20469;-51
2021/05/07 03:52:26;;;;;;;7.73;5.87;;;8.60;99.90;;;;;;5017283;28;20484;-50
2021/05/07 03:54:53;;;;;;;11.27;5.70;;;8.60;99.90;;;;;;5017828;28;20445;-47
2021/05/07 03:57:19;;;;;;;9.87;6.13;;;8.60;99.90;;;;;;5018526;28;20449;-45
2021/05/07 03:59:45;;;;;;;10.50;5.90;;;8.70;99.90;;;;;;5018147;28;20836;-49
2021/05/07 04:02:12;;;;;;;6.37;5.43;;;8.60;99.90;;;;;;5017484;28;20941;-45
2021/05/07 04:04:39;;;;;;;9.33;5.17;;;8.70;99.90;;;;;;5017668;28;20449;-48
2021/05/07 04:07:06;;;;;;;8.90;6.00;;;8.70;99.90;;;;;;5017518;28;20514;-50
2021/05/07 04:09:35;;;;;;;9.33;7.43;;;8.70;99.90;;;;;;5017919;28;20452;-49
2021/05/07 04:12:12;;;;;;;10.87;6.73;;;8.70;99.90;;;;;;5017517;28;20445;-49
2021/05/07 04:14:39;;;;;;;10.80;6.40;;;8.60;99.90;;;;;;5017263;28;20492;-53
2021/05/07 04:17:05;;;;;;;6.63;5.67;;;8.70;99.90;;;;;;5018057;28;20464;-47
2021/05/07 04:19:31;;;;;;;7.43;5.07;;;8.70;99.90;;;;;;5018001;28;20476;-50
2021/05/07 04:21:57;;;;;;;11.83;6.07;;;8.70;99.90;;;;;;5018204;28;20446;-45
2021/05/07 04:24:24;;;;;;;8.67;6.13;;;8.70;99.90;;;;;;5018615;28;20449;-46
2021/05/07 04:26:52;;;;;;;6.70;5.57;;;8.80;99.90;;;;;;5018040;28;20527;-48
2021/05/07 04:29:19;;;;;;;6.53;5.27;;;8.70;99.90;;;;;;5018290;28;20925;-48
2021/05/07 04:31:47;;;;;;;8.40;6.10;;;8.70;99.90;;;;;;5017999;28;20449;-46
2021/05/07 04:34:13;;;;;;;6.77;5.00;;;8.70;99.90;;;;;;5018459;28;20857;-46
2021/05/07 04:36:39;;;;;;;5.77;4.63;;;8.70;99.90;;;;;;5018370;28;20433;-46
2021/05/07 04:39:06;;;;;;;6.97;6.17;;;8.70;99.90;;;;;;5018696;28;20445;-46
2021/05/07 04:41:32;;;;;;;7.70;5.23;;;8.70;99.90;;;;;;5018831;28;20456;-46
2021/05/07 04:43:59;;;;;;;11.33;5.87;;;8.70;99.90;;;;;;5018137;28;20480;-45
2021/05/07 04:46:26;;;;;;;7.77;6.10;;;8.70;99.90;;;;;;5019284;28;20455;-45
2021/05/07 04:48:52;;;;;;;7.80;6.37;;;8.80;99.90;;;;;;5023712;28;20484;-47
2021/05/07 04:51:18;;;;;;;10.63;5.60;;;8.80;99.90;;;;;;5022694;28;20448;-52
2021/05/07 04:53:44;;;;;;;7.47;5.30;;;8.80;99.90;;;;;;5022472;28;20473;-49
2021/05/07 04:56:10;;;;;;;7.20;5.60;;;8.80;99.90;;;;;;5022946;28;20445;-45
2021/05/07 04:58:36;;;;;;;7.93;5.80;;;8.80;99.90;;;;;;5022847;28;20876;-50
2021/05/07 05:01:03;;;;;;;7.60;5.90;;;8.80;99.90;;;;;;5022647;28;20516;-50
2021/05/07 05:03:29;;;;;;;5.87;5.00;;;8.80;99.90;;;;;;5023184;28;20576;-49
2021/05/07 05:05:56;;;;;;;6.53;5.07;;;8.70;99.90;;;;;;5023649;28;20484;-48
2021/05/07 05:08:22;;;;;;;6.43;4.63;;;8.50;99.90;;;;;;5023951;28;20448;-52
2021/05/07 05:10:48;;;;;;;4.93;4.40;;;8.30;99.90;;;;;;5023972;28;20445;-47
2021/05/07 05:13:16;;;;;;;7.87;4.43;;;8.20;99.90;;;;;;5023775;28;20453;-48
2021/05/07 05:15:42;;;;;;;6.10;4.63;;;8.00;99.90;;;;;;5023142;28;20453;-51
2021/05/07 05:18:09;;;;;;;5.70;4.27;;;8.00;99.90;;;;;;5022932;28;20457;-53
2021/05/07 05:20:36;;;;;;;5.63;4.17;;;8.00;99.90;;;;;;5023320;28;20437;-50
2021/05/07 05:23:02;;;;;;;5.90;3.87;;;7.90;99.90;;;;;;5023619;28;20476;-48
2021/05/07 05:25:28;;;;;;;7.30;4.53;;;8.00;99.90;;;;;;5022775;28;20452;-48
2021/05/07 05:27:54;;;;;;;4.33;3.57;;;8.00;99.90;;;;;;5023152;28;20463;-49
2021/05/07 05:30:22;;;;;;;6.60;3.50;;;8.00;99.90;;;;;;5023009;28;20460;-47
2021/05/07 05:32:48;;;;;;;4.83;3.93;;;8.00;99.90;;;;;;5022374;28;20774;-45
2021/05/07 05:35:15;;;;;;;4.53;3.10;;;8.00;99.90;;;;;;5022683;28;20459;-48
2021/05/07 05:37:42;;;;;;;5.20;4.20;;;8.10;99.90;;;;;;5022318;28;20957;-45
2021/05/07 05:40:09;;;;;;;5.60;2.97;;;8.10;99.90;;;;;;5022870;28;20440;-52
2021/05/07 05:42:35;;;;;;;5.50;4.00;;;8.20;99.90;;;;;;5022570;28;20854;-49
2021/05/07 05:45:01;;;;;;;7.30;4.33;;;8.20;99.90;;;;;;5022468;28;20463;-51
2021/05/07 05:47:27;;;;;;;4.40;3.00;;;8.20;99.90;;;;;;5022137;28;20576;-48
2021/05/07 05:49:54;;;;;;;6.40;2.93;;;8.30;99.90;;;;;;5022965;28;20449;-53
2021/05/07 05:52:21;;;;;;;3.50;2.93;;;8.30;99.90;;;;;;5021508;28;20819;-52
2021/05/07 05:54:47;;;;;;;5.10;3.30;;;8.40;99.90;;;;;;5022279;28;20461;-54
2021/05/07 05:57:13;;;;;;;3.27;2.63;;;8.40;99.90;;;;;;5022547;28;20449;-49
2021/05/07 05:59:39;;;;;;;5.40;2.90;;;8.50;99.90;;;;;;5022301;28;20445;-54
2021/05/07 06:02:06;;;;;;;6.23;3.00;;;8.40;99.90;;;;;;5022626;28;20488;-51
2021/05/07 06:04:32;;;;;;;7.30;3.90;;;8.40;99.90;;;;;;5021969;28;20933;-50
2021/05/07 06:06:59;;;;;;;4.13;2.70;;;8.40;99.90;;;;;;5021911;28;20444;-53
2021/05/07 06:09:27;;;;;;;9.30;2.30;;;8.50;99.90;;;;;;5021660;28;20910;-50
2021/05/07 06:11:53;;;;;;;4.37;2.80;;;8.50;99.90;;;;;;5021833;28;20471;-50
2021/05/07 06:14:21;;;;;;;3.97;2.97;;;8.50;99.90;;;;;;5021975;28;20766;-48
2021/05/07 06:16:48;;;;;;;3.33;2.57;;;8.50;99.90;;;;;;5021585;28;20474;-54
2021/05/07 06:19:14;;;;;;;4.70;2.20;;;8.60;99.90;;;;;;5021847;28;20453;-51
2021/05/07 06:21:41;;;;;;;3.87;3.43;;;8.50;99.90;;;;;;5021202;28;20472;-53
2021/05/07 06:24:08;;;;;;;4.13;3.50;;;8.60;99.90;;;;;;5021104;28;20488;-52
2021/05/07 06:26:35;;;;;;;3.80;1.90;;;8.60;99.90;;;;;;5021323;28;20795;-52
2021/05/07 06:29:02;;;;;;;3.07;2.77;;;8.50;99.90;;;;;;5021439;28;20511;-49
2021/05/07 06:31:28;;;;;;;3.00;1.90;;;8.50;99.90;;;;;;5021296;28;20452;-50
2021/05/07 06:33:54;;;;;;;6.40;2.60;;;8.50;99.90;;;;;;5021213;28;20468;-51
2021/05/07 06:36:23;;;;;;;4.47;2.33;;;8.40;99.90;;;;;;5021275;28;20453;-50
2021/05/07 06:38:50;;;;;;;8.67;2.90;;;8.40;99.90;;;;;;5021474;28;20480;-49
2021/05/07 06:41:17;;;;;;;4.53;2.40;;;8.40;99.90;;;;;;5020731;28;20472;-53
2021/05/07 06:43:44;;;;;;;5.23;2.37;;;8.40;99.90;;;;;;5026746;28;20492;-48
2021/05/07 06:46:10;;;;;;;4.77;3.10;;;8.30;99.90;;;;;;5028843;28;20988;-46
2021/05/07 06:48:37;;;;;;;4.73;2.70;;;8.30;99.90;;;;;;5031731;28;20430;-53
2021/05/07 06:51:03;;;;;;;5.53;2.77;;;8.30;99.90;;;;;;5036859;28;20479;-50
2021/05/07 06:53:30;;;;;;;5.53;2.47;;;8.30;99.90;;;;;;5037586;28;20529;-53
2021/05/07 06:55:56;;;;;;;8.80;2.23;;;8.20;99.90;;;;;;5037663;28;20471;-51
2021/05/07 06:58:23;;;;;;;8.30;3.57;;;8.20;99.90;;;;;;5037348;28;20480;-47
2021/05/07 07:00:50;;;;;;;7.50;2.03;;;8.10;99.90;;;;;;5037581;28;20465;-46
2021/05/07 07:03:18;;;;;;;3.43;2.03;;;8.00;99.90;;;;;;5037529;28;20484;-47
2021/05/07 07:05:45;;;;;;;4.17;2.40;;;7.90;99.90;;;;;;5037631;28;20425;-50
2021/05/07 07:08:11;;;;;;;4.63;2.97;;;7.90;99.90;;;;;;5037176;28;20441;-53
2021/05/07 07:10:39;;;;;;;6.83;2.63;;;7.80;99.90;;;;;;5036382;28;20481;-52
2021/05/07 07:13:06;;;;;;;6.23;2.40;;;7.80;99.90;;;;;;5036521;28;20421;-52
2021/05/07 07:15:32;;;;;;;2.10;1.87;;;7.60;99.90;;;;;;5037897;28;20472;-54
2021/05/07 07:18:00;;;;;;;2.63;1.80;;;7.50;99.90;;;;;;5037824;28;20440;-53
2021/05/07 07:20:30;;;;;;;5.23;2.53;;;7.50;99.90;;;;;;5036966;28;21016;-52
2021/05/07 07:22:58;;;;;;;3.07;2.53;;;7.50;99.90;;;;;;5036369;28;20547;-51
2021/05/07 07:25:24;;;;;;;6.60;3.20;;;7.40;99.90;;;;;;5036100;28;20513;-46
2021/05/07 07:27:51;;;;;;;8.20;2.60;;;7.30;99.90;;;;;;5037049;28;20505;-47
2021/05/07 07:30:18;;;;;;;4.57;2.80;;;7.30;99.90;;;;;;5037009;28;20778;-48
2021/05/07 07:32:45;;;;;;;7.70;2.60;;;7.30;99.90;;;;;;5036790;28;20533;-51
2021/05/07 07:35:16;;;;;;;7.17;2.60;;;7.20;99.90;;;;;;5037228;28;20449;-51
2021/05/07 07:37:42;;;;;;;9.50;2.93;;;7.30;99.90;;;;;;5037260;28;20449;-47
2021/05/07 07:40:10;;;;;;;5.00;4.60;;;7.30;99.90;;;;;;5037428;28;20453;-53
2021/05/07 07:42:36;;;;;;;6.33;2.50;;;7.40;99.90;;;;;;5037217;28;20473;-53
2021/05/07 07:45:03;;;;;;;5.47;2.93;;;7.40;99.90;;;;;;5037068;28;20461;-47
2021/05/07 07:47:36;;;;;;;6.57;2.50;;;7.40;99.90;;;;;;5038190;28;20429;-50
2021/05/07 07:50:05;;;;;;;3.20;1.90;;;7.40;99.90;;;;;;5038005;28;20468;-49
2021/05/07 07:52:32;;;;;;;3.00;2.10;;;7.40;99.90;;;;;;5025677;28;20618;-48
2021/05/07 07:54:59;;;;;;;4.20;2.23;;;7.40;99.90;;;;;;5037256;28;20877;-47
2021/05/07 07:57:26;;;;;;;8.70;4.13;;;7.30;99.90;;;;;;5037987;28;20440;-46
2021/05/07 07:59:52;;;;;;;4.03;3.00;;;7.30;99.90;;;;;;5037734;28;20444;-50
2021/05/07 08:02:19;;;;;;;10.17;3.67;;;7.30;99.90;;;;;;5036498;28;20430;-53
2021/05/07 08:04:45;;;;;;;5.63;3.30;;;7.30;99.90;;;;;;5034718;28;20450;-49
2021/05/07 08:07:12;;;;;;;6.77;2.63;;;7.40;99.90;;;;;;5037364;28;21006;-50
2021/05/07 08:09:39;;;;;;;6.07;3.27;;;7.30;99.90;;;;;;5036665;28;20461;-49
2021/05/07 08:12:07;;;;;;;3.30;2.70;;;7.20;99.90;;;;;;5036005;28;20449;-49
2021/05/07 08:14:33;;;;;;;5.83;3.57;;;7.20;99.90;;;;;;5035257;28;20448;-54
2021/05/07 08:17:00;;;;;;;4.30;3.00;;;7.20;99.90;;;;;;5036035;28;20492;-53
2021/05/07 08:19:26;;;;;;;3.20;2.80;;;7.20;99.90;;;;;;5035597;28;20444;-51
2021/05/07 08:21:53;;;;;;;5.53;2.93;;;7.10;99.90;;;;;;5036298;28;20794;-54
2021/05/07 08:24:21;;;;;;;5.00;3.07;;;7.10;99.90;;;;;;5036501;28;20496;-50
2021/05/07 08:26:48;;;;;;;3.50;2.57;;;7.10;99.90;;;;;;5036100;28;20469;-56
2021/05/07 08:29:14;;;;;;;5.20;2.90;;;7.10;99.90;;;;;;5036802;28;20460;-48
2021/05/07 08:31:41;;;;;;;3.90;3.33;;;6.90;99.90;;;;;;5035774;28;20449;-55
2021/05/07 08:34:08;;;;;;;5.43;2.70;;;6.90;99.90;;;;;;5035670;28;20448;-48
2021/05/07 08:36:43;;;;;;;4.83;2.73;;;6.80;99.90;;;;;;5036143;28;20465;-51
2021/05/07 08:39:16;;;;;;;5.37;3.43;;;6.80;99.90;;;;;;5035590;28;20429;-50
2021/05/07 08:41:52;;;;;;;4.27;2.67;;;6.80;99.90;;;;;;5034614;28;20469;-51
2021/05/07 08:44:19;;;;;;;3.70;2.30;;;6.70;99.90;;;;;;5035180;28;20488;-51
2021/05/07 08:46:46;;;;;;;3.83;2.50;;;6.70;99.90;;;;;;5035545;28;20774;-53
2021/05/07 08:49:16;;;;;;;5.07;2.23;;;6.70;99.90;;;;;;5036129;28;20468;-54
2021/05/07 08:51:42;;;;;;;1.70;1.50;;;6.60;99.90;;;;;;5035240;28;20468;-50
2021/05/07 08:54:09;;;;;;;3.50;2.30;;;6.50;99.90;;;;;;5035592;28;20498;-53
2021/05/07 08:56:36;;;;;;;2.70;2.00;;;6.40;99.90;;;;;;5035367;28;20452;-49
2021/05/07 08:59:06;;;;;;;2.27;2.07;;;6.30;99.90;;;;;;5035949;28;20476;-51
2021/05/07 09:01:51;;;;;;;5.63;2.17;;;6.10;99.90;;;;;;5035821;28;20441;-51
2021/05/07 09:04:19;;;;;;;3.20;1.57;;;6.00;99.90;;;;;;5031657;28;20490;-52
2021/05/07 09:06:50;;;;;;;4.47;2.00;;;5.90;99.90;;;;;;5035667;28;20453;-47
2021/05/07 09:09:19;;;;;;;2.60;1.37;;;5.80;99.90;;;;;;5035110;28;20449;-46
2021/05/07 09:11:45;;;;;;;1.80;1.50;;;5.60;99.90;;;;;;5035455;28;20433;-51
2021/05/07 09:14:13;;;;;;;3.93;1.87;;;5.60;99.90;;;;;;5034887;28;20468;-49
2021/05/07 09:16:51;;;;;;;2.60;2.07;;;5.50;99.90;;;;;;5035326;28;20441;-49
2021/05/07 09:19:18;;;;;;;2.30;1.73;;;5.40;99.90;;;;;;5036564;28;20433;-52
2021/05/07 09:21:45;;;;;;;2.40;1.80;;;5.30;99.90;;;;;;5036545;28;20437;-50
2021/05/07 09:24:11;;;;;;;3.13;1.97;;;5.10;99.90;;;;;;5036764;28;20456;-52
2021/05/07 09:26:48;;;;;;;3.00;2.17;;;5.10;99.90;;;;;;5036839;28;20548;-52
2021/05/07 09:29:21;;;;;;;2.50;1.80;;;5.10;99.90;;;;;;5036478;28;20461;-53
2021/05/07 09:31:55;;;;;;;4.93;2.60;;;5.00;99.90;;;;;;5034672;28;20441;-45
2021/05/07 09:34:23;;;;;;;3.10;2.60;;;4.90;99.90;;;;;;5027138;28;20490;-50
2021/05/07 09:36:51;;;;;;;5.23;1.97;;;4.80;99.90;;;;;;5039193;28;20457;-46
2021/05/07 09:39:20;;;;;;;5.27;2.87;;;4.70;99.90;;;;;;5039034;28;20453;-48
2021/05/07 09:41:49;;;;;;;4.00;2.37;;;4.60;99.90;;;;;;5038279;28;20448;-46
2021/05/07 09:44:19;;;;;;;6.13;2.50;;;4.40;99.90;;;;;;5038108;28;20476;-46
2021/05/07 09:46:46;;;;;;;2.67;2.17;;;4.30;99.90;;;;;;5038457;28;20437;-47
2021/05/07 09:49:26;;;;;;;3.23;1.93;;;4.30;99.90;;;;;;5038032;28;20475;-46
2021/05/07 09:51:54;;;;;;;3.00;2.20;;;4.40;99.90;;;;;;5037477;28;20539;-52
2021/05/07 09:54:20;;;;;;;2.57;2.20;;;4.50;99.90;;;;;;5037296;28;20476;-47
2021/05/07 09:56:47;;;;;;;3.60;2.90;;;4.40;99.90;;;;;;5038005;28;20472;-45
2021/05/07 09:59:15;;;;;;;3.90;2.33;;;4.50;99.90;;;;;;5038229;28;20445;-46
2021/05/07 10:01:44;;;;;;;3.00;2.20;;;4.60;99.90;;;;;;5037295;28;20520;-50
2021/05/07 10:04:12;;;;;;;6.47;2.70;;;4.60;99.90;;;;;;5036884;28;20487;-47
2021/05/07 10:06:38;;;;;;;4.60;3.00;;;4.70;99.90;;;;;;5038269;28;20441;-54
2021/05/07 10:09:06;;;;;;;4.17;2.67;;;4.70;99.90;;;;;;5038385;28;20452;-54
2021/05/07 10:11:37;;;;;;;3.23;2.93;;;4.70;99.90;;;;;;5038834;28;20453;-53
2021/05/07 10:14:11;;;;;;;3.00;2.40;;;4.70;99.90;;;;;;5037800;28;20509;-51
2021/05/07 10:16:39;;;;;;;2.90;2.10;;;4.70;99.90;;;;;;5021103;28;20453;-49
2021/05/07 10:19:08;;;;;;;2.53;1.80;;;4.80;99.90;;;;;;5030389;28;20438;-48
2021/05/07 10:21:37;;;;;;;4.67;2.00;;;4.70;99.90;;;;;;5038435;28;20496;-50
2021/05/07 10:24:05;;;;;;;2.30;2.00;;;4.80;99.90;;;;;;5037591;28;20490;-52
2021/05/07 10:26:39;;;;;;;3.17;1.67;;;5.00;99.90;;;;;;5038349;28;20467;-48
2021/05/07 10:29:16;;;;;;;2.23;1.87;;;5.10;99.90;;;;;;5032115;28;20422;-54
2021/05/07 10:31:51;;;;;;;2.20;2.00;;;5.20;99.90;;;;;;5037972;28;20436;-52
2021/05/07 10:34:19;;;;;;;2.20;2.00;;;5.30;99.90;;;;;;5030388;28;20457;-45
2021/05/07 10:36:47;;;;;;;2.53;2.00;;;5.40;99.90;;;;;;5029982;28;20520;-51
2021/05/07 10:39:19;;;;;;;2.57;1.70;;;5.70;99.90;;;;;;5038933;28;20422;-50
2021/05/07 10:41:46;;;;;;;3.00;2.17;;;5.90;99.90;;;;;;5038214;28;20445;-51
2021/05/07 10:44:16;;;;;;;3.00;2.07;;;6.30;99.90;;;;;;5037501;28;20496;-53
2021/05/07 10:46:43;;;;;;;2.67;2.10;;;6.60;99.90;;;;;;5038933;28;20456;-55
2021/05/07 10:49:10;;;;;;;1.73;1.60;;;6.90;99.90;;;;;;5037735;28;20430;-45
2021/05/07 10:51:38;;;;;;;2.37;1.80;;;7.40;99.90;;;;;;5037514;28;20443;-50
2021/05/07 10:54:08;;;;;;;5.53;1.93;;;7.80;99.90;;;;;;5036408;28;20417;-48
2021/05/07 10:56:36;;;;;;;2.20;1.70;;;8.40;99.90;;;;;;5036169;28;20469;-53
2021/05/07 10:59:12;;;;;;;2.93;1.93;;;9.00;99.90;;;;;;5037345;28;20445;-48
2021/05/07 11:01:39;;;;;;;2.30;2.10;;;9.50;99.90;;;;;;5037495;28;20417;-54
2021/05/07 11:04:08;;;;;;;3.63;2.10;;;10.00;99.90;;;;;;5037009;28;20477;-48
2021/05/07 11:06:38;;;;;;;11.13;6.40;;;10.30;99.90;;;;;;5037226;28;20445;-48
2021/05/07 11:09:15;;;;;;;2.00;1.77;;;10.30;99.90;;;;;;5037521;28;20441;-52
2021/05/07 11:11:42;;;;;;;2.50;1.90;;;10.10;99.90;;;;;;5037529;28;20436;-49
2021/05/07 11:14:12;;;;;;;2.93;2.20;;;9.90;99.90;;;;;;5037079;28;20438;-51
2021/05/07 11:16:40;;;;;;;5.00;2.43;;;9.60;99.90;;;;;;5037418;28;20441;-49
2021/05/07 11:19:06;;;;;;;4.50;2.70;;;9.20;99.90;;;;;;5037135;28;20513;-45
2021/05/07 11:21:33;;;;;;;4.00;2.77;;;9.20;99.90;;;;;;5036568;28;20428;-54
2021/05/07 11:24:01;;;;;;;4.27;2.13;;;9.10;99.90;;;;;;5018632;28;20492;-53
2021/05/07 11:26:37;;;;;;;4.70;2.60;;;8.90;99.90;;;;;;5036100;28;20497;-47
2021/05/07 11:29:05;;;;;;;2.70;2.30;;;8.80;99.90;;;;;;5036087;28;20453;-49
2021/05/07 11:31:31;;;;;;;10.23;3.17;;;9.00;99.90;;;;;;5028014;28;20474;-47
2021/05/07 11:33:58;;;;;;;7.47;3.70;;;9.20;99.90;;;;;;5033401;28;20448;-49
2021/05/07 11:36:25;;;;;;;2.33;1.80;;;9.30;99.90;;;;;;5036526;28;20457;-49
2021/05/07 11:38:51;;;;;;;4.50;2.23;;;9.40;99.90;;;;;;5036661;28;20488;-44
2021/05/07 11:41:20;;;;;;;8.63;2.60;;;9.40;99.90;;;;;;5037457;28;20429;-50
2021/05/07 11:43:49;;;;;;;3.70;2.60;;;9.30;99.90;;;;;;5037046;28;20521;-50
2021/05/07 11:46:15;;;;;;;3.13;2.17;;;9.50;99.90;;;;;;5036566;28;20457;-49
2021/05/07 11:48:46;;;;;;;3.23;2.37;;;9.50;99.90;;;;;;5037361;28;20468;-50
2021/05/07 11:51:13;;;;;;;4.97;2.27;;;9.60;99.90;;;;;;5037609;28;20448;-53
2021/05/07 11:53:40;;;;;;;2.77;2.00;;;9.80;99.90;;;;;;5036850;28;20512;-47
2021/05/07 11:56:18;;;;;;;3.20;2.30;;;10.10;99.90;;;;;;5036147;28;20443;-50
2021/05/07 11:58:48;;;;;;;2.77;2.20;;;10.20;99.90;;;;;;5037239;28;20448;-50
2021/05/07 12:01:14;;;;;;;3.77;2.33;;;10.30;99.90;;;;;;5038222;28;20440;-53
2021/05/07 12:03:48;;;;;;;2.67;2.20;;;10.20;99.90;;;;;;5037829;28;20493;-49
2021/05/07 12:06:19;;;;;;;4.10;2.13;;;10.10;99.90;;;;;;5038120;28;20453;-48
2021/05/07 12:08:46;;;;;;;3.90;2.27;;;10.30;99.90;;;;;;5037996;28;20497;-46
2021/05/07 12:11:14;;;;;;;3.93;2.53;;;10.50;99.90;;;;;;5028357;28;20457;-46
2021/05/07 12:13:42;;;;;;;2.37;1.77;;;10.70;99.90;;;;;;5037398;28;20500;-50
2021/05/07 12:16:10;;;;;;;2.77;2.00;;;10.90;99.90;;;;;;5037154;28;20421;-53
2021/05/07 12:18:39;;;;;;;2.10;1.90;;;10.80;99.90;;;;;;5037088;28;20457;-49
2021/05/07 12:21:07;;;;;;;2.30;1.80;;;10.90;99.90;;;;;;5037500;28;20441;-51
2021/05/07 12:23:42;;;;;;;8.10;1.93;;;10.80;99.90;;;;;;5036702;28;20473;-51
2021/05/07 12:26:09;;;;;;;5.83;2.33;;;10.70;99.90;;;;;;5036406;28;20425;-50
2021/05/07 12:28:36;;;;;;;2.53;1.50;;;10.50;99.90;;;;;;5036142;28;20449;-50
2021/05/07 12:31:04;;;;;;;1.50;1.10;;;9.70;99.90;;;;;;5035815;28;20445;-53
2021/05/07 12:33:34;;;;;;;3.43;1.63;;;9.00;99.90;;;;;;5035636;28;20455;-46
2021/05/07 12:36:02;;;;;;;2.70;1.60;;;8.50;99.90;;;;;;5035943;28;20421;-47
2021/05/07 12:38:33;;;;;;;5.13;1.73;;;8.20;99.90;;;;;;5035250;28;20509;-50
2021/05/07 12:41:03;;;;;;;3.03;1.40;;;8.10;99.90;;;;;;5035375;28;20445;-44
2021/05/07 12:43:32;;;;;;;2.00;1.70;;;8.00;99.90;;;;;;5035729;28;20472;-51
2021/05/07 12:45:58;;;;;;;2.30;1.63;;;7.90;99.90;;;;;;5035538;28;20437;-51
2021/05/07 12:48:25;;;;;;;3.67;3.23;;;8.00;99.90;;;;;;5030769;28;20524;-53
2021/05/07 12:50:53;;;;;;;2.07;1.47;;;8.10;99.90;;;;;;5035196;28;20477;-50
2021/05/07 12:53:21;;;;;;;3.70;2.80;;;8.20;99.90;;;;;;5026556;28;20503;-52
2021/05/07 12:55:49;;;;;;;3.70;2.63;;;8.50;99.90;;;;;;5035657;28;20449;-52
2021/05/07 12:58:18;;;;;;;3.03;1.73;;;8.90;99.90;;;;;;5036220;28;20472;-50